Cap Bianco — A8OK5 — position and weather

sailwx.info

Track history (hours):
 
Tides and Currents Weather Stations Pressure Air Temp Water Temp Dewpoint Dewpoint Depression Visibility Wind Speed Wind Dir Waves Ship Positions

Cap Bianco

Last reported at 2015-Jan-25 23:25 UTC. Time now 2015-Jan-26 00:24 UTC.
Position S 35°03' W 056°01'.

Length 222 m; draft 8.4 m.

Type: Cargo ship. MMSI: 636091489.

Date/timePositionNaut miles runAvg speedWind from/ knotsBaromVisibWave heightAir tempDewpointWater temp
2015-Jan-25 23:25S 35°03' W 056°01'0 0.1
2015-Jan-25 22:31S 35°03' W 056°01'0 0.0
2015-Jan-25 21:31S 35°03' W 056°01'0 0.0
2015-Jan-25 20:28S 35°03' W 056°01'0 0.5
2015-Jan-25 19:33S 35°03' W 056°01'6011.3
2015-Jan-25 14:14S 34°59' W 057°14'1015.1
2015-Jan-25 13:33S 34°51' W 057°22'1614.8
2015-Jan-25 12:29S 34°45' W 057°40'1111.7
2015-Jan-25 11:34S 34°43' W 057°53'1413.7
2015-Jan-25 10:33S 34°38' W 058°08'1010.2
2015-Jan-25 09:33S 34°38' W 058°21'0 0.2
2015-Jan-25 08:30S 34°38' W 058°21'0 0.0
2015-Jan-25 07:33S 34°38' W 058°21'0 0.0
2015-Jan-25 06:33S 34°38' W 058°21'0 0.0
2015-Jan-25 05:30S 34°38' W 058°21'0 0.0
2015-Jan-25 03:33S 34°38' W 058°21'0 0.0
2015-Jan-25 02:33S 34°38' W 058°21'0 0.0
2015-Jan-25 01:33S 34°38' W 058°21'0 0.0
2015-Jan-25 00:27S 34°38' W 058°21'0 0.0
2015-Jan-24 23:33S 34°38' W 058°21'0 0.0
2015-Jan-24 22:33S 34°38' W 058°21'0 0.0
2015-Jan-24 19:30S 34°38' W 058°21'7 6.5
2015-Jan-24 18:24S 34°37' W 058°12'1011.7
2015-Jan-24 17:34S 34°40' W 058°01'1313.0
2015-Jan-24 16:33S 34°44' W 057°46'257 7.2
2015-Jan-23 05:00S 33°48' W 052°42'15713.1 090 / 181025.010.8 1.521.0
2015-Jan-22 17:00S 31°48' W 050°42'16613.9 090 / 231026.010.8 2.024.0
2015-Jan-22 05:00S 29°30' W 048°54'15211.7 160 / 251023.0 5.4 1.021.0
2015-Jan-21 16:00S 27°12' W 047°42'14812.3 180 / 311018.0 5.4 3.025.0
2015-Jan-21 04:00S 24°54' W 046°42'4212.2 200 / 131015.0 5.4 1.025.0
2015-Jan-21 00:32S 24°14' W 046°26'1212.4
2015-Jan-20 23:33S 24°03' W 046°21'6 6.1
2015-Jan-20 22:33S 23°58' W 046°18'0 0.0
2015-Jan-20 21:30S 23°58' W 046°18'0 0.0
2015-Jan-20 20:33S 23°58' W 046°18'0 0.0
2015-Jan-20 19:33S 23°58' W 046°18'0 0.0
2015-Jan-20 18:18S 23°58' W 046°18'0 0.0
2015-Jan-20 17:30S 23°58' W 046°18'0 0.0
2015-Jan-20 16:33S 23°58' W 046°18'0 0.0
2015-Jan-20 15:27S 23°58' W 046°18'0 0.0
2015-Jan-20 14:33S 23°58' W 046°18'0 0.0
2015-Jan-20 13:30S 23°58' W 046°18'0 0.0
2015-Jan-20 12:27S 23°58' W 046°18'0 0.0
2015-Jan-20 11:21S 23°58' W 046°18'0 0.0
2015-Jan-20 10:30S 23°58' W 046°18'3 3.2
2015-Jan-20 09:33S 23°60' W 046°20'9 9.1
2015-Jan-20 08:33S 24°09' W 046°23'4610.0
2015-Jan-20 04:00S 24°48' W 046°48'163 4.5 050 / 121014.510.8 1.028.0
2015-Jan-18 16:00S 27°12' W 048°12'1114.3 180 / 81017.010.8 0.534.0
2015-Jan-18 15:14S 27°23' W 048°14'1014.4
2015-Jan-18 14:33S 27°32' W 048°17'1414.3
2015-Jan-18 13:33S 27°46' W 048°21'28613.3
2015-Jan-17 16:00S 31°54' W 051°06'292 8.1 240 / 81015.010.8 1.030.0
2015-Jan-16 04:00S 35°00' W 055°36'   030 / 121020.010.8 1.021.0
Track history (hours):
 
Tides and Currents Weather Stations Pressure Air Temp Water Temp Dewpoint Dewpoint Depression Visibility Wind Speed Wind Dir Waves Ship Positions

Cap Bianco

Last reported at 2015-Jan-25 23:25 UTC. Time now 2015-Jan-26 00:24 UTC.
Position S 35°03' W 056°01'.

Length 222 m; draft 8.4 m.

Type: Cargo ship. MMSI: 636091489.

Date/timePositionNaut miles runAvg speedWind from/ knotsBaromVisibWave heightAir tempDewpointWater temp
2015-Jan-25 23:25S 35°03' W 056°01'0 0.1
2015-Jan-25 22:31S 35°03' W 056°01'0 0.0
2015-Jan-25 21:31S 35°03' W 056°01'0 0.0
2015-Jan-25 20:28S 35°03' W 056°01'0 0.5
2015-Jan-25 19:33S 35°03' W 056°01'6011.3
2015-Jan-25 14:14S 34°59' W 057°14'1015.1
2015-Jan-25 13:33S 34°51' W 057°22'1614.8
2015-Jan-25 12:29S 34°45' W 057°40'1111.7
2015-Jan-25 11:34S 34°43' W 057°53'1413.7
2015-Jan-25 10:33S 34°38' W 058°08'1010.2
2015-Jan-25 09:33S 34°38' W 058°21'0 0.2
2015-Jan-25 08:30S 34°38' W 058°21'0 0.0
2015-Jan-25 07:33S 34°38' W 058°21'0 0.0
2015-Jan-25 06:33S 34°38' W 058°21'0 0.0
2015-Jan-25 05:30S 34°38' W 058°21'0 0.0
2015-Jan-25 03:33S 34°38' W 058°21'0 0.0
2015-Jan-25 02:33S 34°38' W 058°21'0 0.0
2015-Jan-25 01:33S 34°38' W 058°21'0 0.0
2015-Jan-25 00:27S 34°38' W 058°21'0 0.0
2015-Jan-24 23:33S 34°38' W 058°21'0 0.0
2015-Jan-24 22:33S 34°38' W 058°21'0 0.0
2015-Jan-24 19:30S 34°38' W 058°21'7 6.5
2015-Jan-24 18:24S 34°37' W 058°12'1011.7
2015-Jan-24 17:34S 34°40' W 058°01'1313.0
2015-Jan-24 16:33S 34°44' W 057°46'257 7.2
2015-Jan-23 05:00S 33°48' W 052°42'15713.1 090 / 181025.010.8 1.521.0
2015-Jan-22 17:00S 31°48' W 050°42'16613.9 090 / 231026.010.8 2.024.0
2015-Jan-22 05:00S 29°30' W 048°54'15211.7 160 / 251023.0 5.4 1.021.0
2015-Jan-21 16:00S 27°12' W 047°42'14812.3 180 / 311018.0 5.4 3.025.0
2015-Jan-21 04:00S 24°54' W 046°42'4212.2 200 / 131015.0 5.4 1.025.0
2015-Jan-21 00:32S 24°14' W 046°26'1212.4
2015-Jan-20 23:33S 24°03' W 046°21'6 6.1
2015-Jan-20 22:33S 23°58' W 046°18'0 0.0
2015-Jan-20 21:30S 23°58' W 046°18'0 0.0
2015-Jan-20 20:33S 23°58' W 046°18'0 0.0
2015-Jan-20 19:33S 23°58' W 046°18'0 0.0
2015-Jan-20 18:18S 23°58' W 046°18'0 0.0
2015-Jan-20 17:30S 23°58' W 046°18'0 0.0
2015-Jan-20 16:33S 23°58' W 046°18'0 0.0
2015-Jan-20 15:27S 23°58' W 046°18'0 0.0
2015-Jan-20 14:33S 23°58' W 046°18'0 0.0
2015-Jan-20 13:30S 23°58' W 046°18'0 0.0
2015-Jan-20 12:27S 23°58' W 046°18'0 0.0
2015-Jan-20 11:21S 23°58' W 046°18'0 0.0
2015-Jan-20 10:30S 23°58' W 046°18'3 3.2
2015-Jan-20 09:33S 23°60' W 046°20'9 9.1
2015-Jan-20 08:33S 24°09' W 046°23'4610.0
2015-Jan-20 04:00S 24°48' W 046°48'163 4.5 050 / 121014.510.8 1.028.0
2015-Jan-18 16:00S 27°12' W 048°12'1114.3 180 / 81017.010.8 0.534.0
2015-Jan-18 15:14S 27°23' W 048°14'1014.4
2015-Jan-18 14:33S 27°32' W 048°17'1414.3
2015-Jan-18 13:33S 27°46' W 048°21'28613.3
2015-Jan-17 16:00S 31°54' W 051°06'292 8.1 240 / 81015.010.8 1.030.0
2015-Jan-16 04:00S 35°00' W 055°36'   030 / 121020.010.8 1.021.0

Dump ship's entire track history